createdAt,value
2018-02-27T00:02:06.563Z,22.17
2018-02-27T00:04:35.195Z,8.32
2018-02-27T00:07:03.520Z,7.35
2018-02-27T00:09:32.752Z,10.13
2018-02-27T00:12:01.074Z,7.05
2018-02-27T00:14:29.424Z,6.93
2018-02-27T00:16:57.903Z,3.80
2018-02-27T00:19:26.313Z,6.10
2018-02-27T00:21:54.644Z,7.37
2018-02-27T00:24:23.488Z,12.55
2018-02-27T00:26:51.840Z,12.37
2018-02-27T00:29:20.169Z,17.77
2018-02-27T00:31:50.035Z,10.85
2018-02-27T00:34:18.372Z,11.68
2018-02-27T00:36:46.709Z,18.85
2018-02-27T00:39:15.943Z,7.80
2018-02-27T00:41:44.581Z,9.02
2018-02-27T00:44:12.903Z,13.15
2018-02-27T00:46:41.348Z,8.45
2018-02-27T00:49:10.356Z,13.20
2018-02-27T00:51:39.419Z,11.00
2018-02-27T00:54:07.785Z,9.10
2018-02-27T00:56:36.119Z,15.95
2018-02-27T00:59:04.439Z,10.93
2018-02-27T01:01:33.411Z,8.25
2018-02-27T01:04:01.732Z,11.88
2018-02-27T01:06:30.061Z,11.00
2018-02-27T01:08:58.447Z,10.50
2018-02-27T01:11:27.276Z,14.35
2018-02-27T01:13:56.361Z,12.18
2018-02-27T01:16:24.739Z,9.50
2018-02-27T01:18:53.136Z,8.38
2018-02-27T01:21:22.224Z,15.98
2018-02-27T01:23:51.376Z,11.35
2018-02-27T01:26:19.716Z,18.12
2018-02-27T01:28:48.052Z,9.45
2018-02-27T01:31:16.888Z,11.88
2018-02-27T01:33:45.212Z,12.63
2018-02-27T01:36:13.529Z,8.82
2018-02-27T01:38:43.033Z,9.10
2018-02-27T01:41:11.347Z,10.13
2018-02-27T01:43:39.692Z,11.82
2018-02-27T01:46:08.040Z,13.27
2018-02-27T01:48:36.376Z,15.55
2018-02-27T01:51:15.484Z,11.02
2018-02-27T01:53:43.863Z,10.50
2018-02-27T01:56:12.624Z,9.05
2018-02-27T01:58:40.963Z,14.93
2018-02-27T02:01:09.362Z,11.07
2018-02-27T02:03:37.684Z,13.48
2018-02-27T02:06:06.016Z,7.68
2018-02-27T02:08:35.006Z,13.25
2018-02-27T02:11:03.340Z,15.07
2018-02-27T02:13:31.671Z,9.68
2018-02-27T02:16:01.562Z,15.55
2018-02-27T02:18:29.884Z,14.25
2018-02-27T02:20:58.673Z,11.35
2018-02-27T02:23:27.416Z,17.90
2018-02-27T02:25:55.740Z,11.27
2018-02-27T02:28:24.300Z,15.23
2018-02-27T02:30:52.652Z,9.48
2018-02-27T02:33:21.063Z,10.43
2018-02-27T02:35:49.533Z,14.07
2018-02-27T02:38:17.916Z,15.27
2018-02-27T02:40:46.249Z,12.45
2018-02-27T02:43:14.705Z,10.10
2018-02-27T02:45:43.081Z,11.93
2018-02-27T02:48:11.571Z,13.32
2018-02-27T02:50:39.904Z,13.30
2018-02-27T02:53:08.303Z,8.65
2018-02-27T02:55:36.652Z,16.67
2018-02-27T02:58:05.060Z,11.23
2018-02-27T03:00:33.420Z,12.48
2018-02-27T03:03:01.829Z,12.63
2018-02-27T03:05:30.226Z,11.77
2018-02-27T03:07:58.592Z,8.85
2018-02-27T03:10:27.725Z,11.38
2018-02-27T03:12:56.264Z,14.68
2018-02-27T03:15:24.902Z,9.70
2018-02-27T03:17:53.460Z,16.83
2018-02-27T03:20:21.908Z,13.18
2018-02-27T03:22:51.172Z,14.10
2018-02-27T03:25:19.502Z,14.95
2018-02-27T03:27:48.404Z,14.02
2018-02-27T03:30:16.737Z,18.20
2018-02-27T03:32:45.059Z,22.65
2018-02-27T03:35:13.801Z,11.07
2018-02-27T03:37:42.135Z,9.15
2018-02-27T03:40:10.884Z,6.68
2018-02-27T03:42:39.266Z,13.00
2018-02-27T03:45:07.611Z,5.43
2018-02-27T03:47:35.936Z,13.07
2018-02-27T03:50:05.065Z,14.38
2018-02-27T03:52:34.164Z,12.70
2018-02-27T03:55:02.552Z,17.40
2018-02-27T03:57:30.872Z,8.68
2018-02-27T03:59:59.452Z,11.80
2018-02-27T04:02:27.812Z,11.38
2018-02-27T04:04:56.143Z,19.33
2018-02-27T04:07:24.556Z,19.45
2018-02-27T04:09:53.485Z,11.12
2018-02-27T04:12:22.584Z,14.10
2018-02-27T04:14:50.981Z,13.02
2018-02-27T04:17:19.860Z,23.95
2018-02-27T04:19:48.185Z,15.80
2018-02-27T04:22:16.581Z,11.48
2018-02-27T04:24:44.907Z,18.15
2018-02-27T04:27:13.242Z,21.25
2018-02-27T04:29:41.787Z,13.50
2018-02-27T04:32:10.108Z,16.67
2018-02-27T04:34:38.432Z,11.85
2018-02-27T04:37:07.057Z,29.85
2018-02-27T04:39:35.487Z,11.77
2018-02-27T04:42:04.090Z,11.45
2018-02-27T04:44:32.564Z,15.25
2018-02-27T04:47:00.926Z,14.73
2018-02-27T04:49:29.264Z,9.05
2018-02-27T04:51:57.644Z,14.63
2018-02-27T04:54:26.672Z,14.00
2018-02-27T04:56:54.993Z,19.45
2018-02-27T04:59:23.351Z,12.30
2018-02-27T05:01:51.710Z,11.23
2018-02-27T05:04:20.038Z,15.77
2018-02-27T05:06:49.585Z,16.02
2018-02-27T05:09:17.904Z,11.18
2018-02-27T05:11:46.277Z,16.40
2018-02-27T05:14:14.932Z,12.80
2018-02-27T05:16:43.262Z,17.08
2018-02-27T05:19:12.124Z,17.02
2018-02-27T05:21:41.068Z,15.60
2018-02-27T05:24:09.424Z,28.33
2018-02-27T05:26:37.751Z,24.05
2018-02-27T05:29:06.076Z,13.60
2018-02-27T05:31:34.451Z,13.50
2018-02-27T05:34:02.793Z,17.42
2018-02-27T05:36:31.123Z,19.65
2018-02-27T05:38:59.248Z,14.25
2018-02-27T05:41:28.160Z,22.50
2018-02-27T05:43:56.547Z,12.82
2018-02-27T05:46:24.869Z,12.13
2018-02-27T05:48:53.984Z,18.55
2018-02-27T05:51:22.308Z,13.50
2018-02-27T05:53:51.200Z,11.82
2018-02-27T05:56:19.541Z,17.08
2018-02-27T05:58:47.866Z,15.27
2018-02-27T06:01:16.299Z,19.15
2018-02-27T06:03:45.104Z,11.45
2018-02-27T06:06:13.437Z,17.25
2018-02-27T06:08:41.828Z,16.37
2018-02-27T06:11:11.002Z,10.75
2018-02-27T06:13:39.316Z,12.07
2018-02-27T06:16:07.761Z,12.45
2018-02-27T06:18:36.121Z,20.75
2018-02-27T06:21:04.541Z,5.35
2018-02-27T06:23:32.992Z,23.12
2018-02-27T06:26:01.335Z,8.82
2018-02-27T06:28:29.652Z,18.73
2018-02-27T06:30:58.603Z,15.85
2018-02-27T06:33:26.924Z,14.52
2018-02-27T06:35:55.398Z,15.25
2018-02-27T06:38:24.486Z,23.85
2018-02-27T06:40:52.812Z,14.18
2018-02-27T06:43:21.154Z,14.87
2018-02-27T06:45:49.922Z,20.77
2018-02-27T06:48:18.261Z,23.45
2018-02-27T06:50:46.622Z,13.38
2018-02-27T06:53:15.740Z,15.75
2018-02-27T06:55:43.875Z,15.38
2018-02-27T06:58:12.640Z,12.00
2018-02-27T07:00:40.961Z,13.30
2018-02-27T07:03:10.059Z,14.32
2018-02-27T07:05:38.448Z,17.30
2018-02-27T07:08:07.589Z,16.77
2018-02-27T07:10:36.800Z,12.37
2018-02-27T07:13:05.116Z,11.60
2018-02-27T07:15:34.037Z,8.52
2018-02-27T07:18:02.488Z,21.05
2018-02-27T07:20:30.816Z,12.77
2018-02-27T07:22:59.184Z,13.98
2018-02-27T07:25:27.509Z,18.77
2018-02-27T07:27:55.872Z,18.70
2018-02-27T07:30:24.564Z,12.60
2018-02-27T07:32:52.740Z,13.40
2018-02-27T07:35:21.755Z,5.85
2018-02-27T07:37:51.216Z,18.25
2018-02-27T07:40:19.528Z,11.12
2018-02-27T07:42:48.648Z,8.77
2018-02-27T07:45:16.972Z,15.13
2018-02-27T07:47:47.258Z,4.82
2018-02-27T07:50:15.633Z,23.92
2018-02-27T07:52:44.315Z,18.95
2018-02-27T07:55:13.217Z,11.90
2018-02-27T07:57:42.047Z,9.93
2018-02-27T08:00:10.996Z,13.75
2018-02-27T08:02:39.312Z,17.52
2018-02-27T08:05:08.566Z,13.70
2018-02-27T08:07:36.859Z,24.70
2018-02-27T08:10:05.235Z,22.85
2018-02-27T08:12:33.557Z,17.17
2018-02-27T08:15:02.094Z,20.65
2018-02-27T08:17:30.452Z,17.70
2018-02-27T08:19:58.769Z,11.80
2018-02-27T08:22:27.117Z,17.02
2018-02-27T08:24:55.704Z,17.10
2018-02-27T08:27:24.024Z,20.77
2018-02-27T08:29:52.929Z,20.00
2018-02-27T08:32:21.296Z,23.12
2018-02-27T08:34:49.617Z,24.33
2018-02-27T08:37:17.937Z,17.87
2018-02-27T08:39:46.377Z,15.60
2018-02-27T08:42:14.699Z,19.50
2018-02-27T08:44:43.017Z,19.20
2018-02-27T08:47:11.410Z,17.67
2018-02-27T08:49:40.091Z,22.35
2018-02-27T08:52:08.424Z,20.70
2018-02-27T08:54:36.739Z,18.55
2018-02-27T08:57:05.097Z,19.77
2018-02-27T08:59:34.188Z,12.13
2018-02-27T09:02:02.616Z,12.37
2018-02-27T09:04:31.264Z,17.55
2018-02-27T09:07:00.097Z,19.02
2018-02-27T09:09:29.259Z,18.35
2018-02-27T09:11:58.059Z,24.20
2018-02-27T09:14:26.800Z,16.27
2018-02-27T09:16:55.124Z,13.60
2018-02-27T09:19:23.452Z,18.62
2018-02-27T09:21:51.901Z,11.50
2018-02-27T09:24:20.619Z,12.35
2018-02-27T09:26:48.952Z,19.77
2018-02-27T09:29:17.747Z,19.33
2018-02-27T09:31:46.235Z,19.95
2018-02-27T09:34:14.664Z,21.33
2018-02-27T09:36:43.040Z,22.33
2018-02-27T09:39:11.363Z,13.93
2018-02-27T09:41:39.684Z,25.52
2018-02-27T09:44:08.045Z,24.95
2018-02-27T09:46:36.407Z,30.92
2018-02-27T09:49:04.731Z,19.52
2018-02-27T09:51:33.057Z,18.60
2018-02-27T09:54:01.406Z,28.38
2018-02-27T09:56:30.497Z,23.85
2018-02-27T09:58:59.597Z,28.60
2018-02-27T10:01:29.896Z,29.55
2018-02-27T10:03:58.503Z,21.00
2018-02-27T10:06:27.133Z,16.42
2018-02-27T10:08:55.699Z,17.52
2018-02-27T10:11:24.068Z,19.50
2018-02-27T10:13:52.385Z,20.17
2018-02-27T10:16:20.700Z,14.82
2018-02-27T10:18:49.569Z,31.33
2018-02-27T10:21:17.891Z,19.70
2018-02-27T10:23:46.204Z,21.62
2018-02-27T10:26:14.571Z,22.65
2018-02-27T10:28:42.943Z,15.77
2018-02-27T10:31:11.257Z,19.23
2018-02-27T10:33:39.663Z,12.32
2018-02-27T10:36:07.976Z,22.48
2018-02-27T10:38:36.605Z,18.42
2018-02-27T10:41:04.961Z,22.77
2018-02-27T10:43:33.416Z,22.98
2018-02-27T10:46:01.731Z,22.90
2018-02-27T10:48:30.052Z,23.73
2018-02-27T10:50:58.451Z,22.73
2018-02-27T10:53:26.763Z,21.50
2018-02-27T10:55:55.300Z,23.52
2018-02-27T10:58:23.653Z,14.95
2018-02-27T11:01:01.880Z,22.55
2018-02-27T11:03:30.294Z,23.80
2018-02-27T11:05:58.612Z,15.57
2018-02-27T11:08:27.692Z,13.75
2018-02-27T11:10:55.812Z,17.17
2018-02-27T11:13:24.128Z,19.33
2018-02-27T11:15:53.402Z,23.23
2018-02-27T11:18:22.389Z,12.50
2018-02-27T11:20:50.781Z,9.13
2018-02-27T11:23:19.136Z,11.48
2018-02-27T11:25:48.608Z,7.85
2018-02-27T11:28:16.931Z,24.48
2018-02-27T11:30:45.291Z,20.37
2018-02-27T11:33:13.634Z,18.17
2018-02-27T11:35:41.964Z,12.43
2018-02-27T11:38:10.304Z,19.12
2018-02-27T11:40:40.704Z,10.95
2018-02-27T11:43:09.050Z,22.33
2018-02-27T11:45:38.320Z,23.05
2018-02-27T11:48:06.668Z,10.38
2018-02-27T11:50:35.013Z,18.87
2018-02-27T11:53:03.328Z,16.60
2018-02-27T11:55:31.701Z,20.60
2018-02-27T11:58:00.056Z,8.85
2018-02-27T12:00:29.439Z,17.67
2018-02-27T12:02:57.816Z,22.80
2018-02-27T12:05:26.132Z,19.50
2018-02-27T12:07:54.604Z,19.25
2018-02-27T12:10:23.160Z,22.33
2018-02-27T12:12:51.504Z,20.27
2018-02-27T12:15:19.809Z,25.33
2018-02-27T12:17:48.676Z,25.85
2018-02-27T12:20:18.183Z,19.85
2018-02-27T12:22:46.509Z,18.95
2018-02-27T12:25:15.084Z,15.05
2018-02-27T12:27:43.490Z,19.27
2018-02-27T12:30:11.894Z,19.12
2018-02-27T12:32:40.243Z,23.05
2018-02-27T12:35:08.556Z,18.52
2018-02-27T12:37:36.868Z,21.20
2018-02-27T12:40:05.252Z,26.20
2018-02-27T12:42:33.572Z,21.40
2018-02-27T12:45:01.889Z,20.00
2018-02-27T12:47:30.744Z,17.85
2018-02-27T12:50:00.663Z,21.55
2018-02-27T12:52:29.146Z,17.95
2018-02-27T12:54:57.520Z,20.98
2018-02-27T12:57:26.596Z,31.33
2018-02-27T12:59:55.500Z,12.90
2018-02-27T13:02:24.956Z,22.02
2018-02-27T13:04:53.289Z,23.98
2018-02-27T13:07:21.608Z,19.05
2018-02-27T13:09:50.002Z,23.60
2018-02-27T13:12:18.324Z,13.13
2018-02-27T13:14:47.400Z,23.87
2018-02-27T13:17:16.616Z,20.20
2018-02-27T13:19:44.935Z,17.67
2018-02-27T13:22:13.252Z,23.52
2018-02-27T13:24:41.583Z,19.12
2018-02-27T13:27:09.900Z,30.15
2018-02-27T13:29:38.371Z,20.48
2018-02-27T13:32:06.697Z,19.48
2018-02-27T13:34:35.020Z,26.30
2018-02-27T13:37:03.478Z,19.05
2018-02-27T13:39:31.796Z,22.55
2018-02-27T13:42:00.116Z,25.75
2018-02-27T13:44:28.464Z,17.73
2018-02-27T13:46:56.781Z,17.90
2018-02-27T13:49:25.266Z,18.27
2018-02-27T13:51:53.500Z,18.00
2018-02-27T13:54:21.821Z,17.45
2018-02-27T13:56:50.176Z,22.70
2018-02-27T13:59:19.247Z,20.60
2018-02-27T14:01:47.551Z,23.35
2018-02-27T14:04:16.523Z,21.98
2018-02-27T14:06:44.852Z,21.30
2018-02-27T14:09:13.175Z,22.23
2018-02-27T14:11:41.528Z,24.27
2018-02-27T14:14:09.898Z,22.37
2018-02-27T14:16:38.220Z,24.87
2018-02-27T14:19:07.335Z,24.87
2018-02-27T14:21:35.660Z,13.20
2018-02-27T14:24:03.992Z,28.73
2018-02-27T14:26:32.890Z,16.50
2018-02-27T14:29:01.177Z,20.27
2018-02-27T14:31:29.500Z,27.52
2018-02-27T14:33:57.869Z,24.17
2018-02-27T14:36:26.210Z,26.25
2018-02-27T14:38:54.540Z,31.48
2018-02-27T14:41:22.892Z,22.58
2018-02-27T14:43:51.232Z,22.58
2018-02-27T14:46:19.732Z,33.40
2018-02-27T14:48:48.050Z,18.55
2018-02-27T14:51:16.385Z,17.35
2018-02-27T14:53:45.124Z,21.55
2018-02-27T14:56:13.501Z,13.43
2018-02-27T14:58:41.820Z,21.42
2018-02-27T15:01:10.148Z,21.52
2018-02-27T15:03:38.520Z,20.10
2018-02-27T15:06:06.843Z,20.02
2018-02-27T15:08:35.163Z,18.42
2018-02-27T15:11:03.527Z,21.42
2018-02-27T15:13:31.844Z,12.55
2018-02-27T15:16:00.161Z,18.55
2018-02-27T15:18:28.541Z,29.33
2018-02-27T15:20:56.872Z,26.83
2018-02-27T15:23:25.189Z,20.25
2018-02-27T15:25:53.556Z,15.27
2018-02-27T15:28:21.923Z,28.50
2018-02-27T15:30:51.034Z,29.85
2018-02-27T15:33:19.394Z,30.27
2018-02-27T15:35:47.724Z,23.23
2018-02-27T15:38:16.092Z,52.08
2018-02-27T15:40:44.404Z,20.00
2018-02-27T15:43:12.720Z,22.75
2018-02-27T15:45:42.343Z,21.95
2018-02-27T15:48:10.801Z,17.80
2018-02-27T15:50:39.900Z,23.45
2018-02-27T15:53:09.043Z,18.60
2018-02-27T15:55:38.036Z,25.37
2018-02-27T15:58:06.353Z,23.83
2018-02-27T16:00:35.345Z,27.58
2018-02-27T16:03:03.665Z,19.73
2018-02-27T16:05:34.095Z,21.37
2018-02-27T16:08:02.440Z,21.35
2018-02-27T16:10:30.860Z,18.37
2018-02-27T16:12:59.884Z,27.08
2018-02-27T16:15:28.196Z,24.52
2018-02-27T16:17:56.552Z,26.30
2018-02-27T16:20:24.917Z,31.48
2018-02-27T16:22:53.231Z,31.17
2018-02-27T16:25:21.632Z,25.77
2018-02-27T16:27:49.984Z,26.02
2018-02-27T16:30:19.070Z,10.60
2018-02-27T16:32:48.195Z,15.30
2018-02-27T16:35:16.541Z,14.23
2018-02-27T16:37:45.366Z,21.70
2018-02-27T16:40:13.739Z,20.33
2018-02-27T16:42:42.563Z,23.90
2018-02-27T16:45:10.932Z,25.83
2018-02-27T16:47:39.299Z,21.25
2018-02-27T16:50:08.468Z,19.77
2018-02-27T16:52:36.853Z,20.60
2018-02-27T16:55:05.416Z,23.55
2018-02-27T16:57:33.645Z,23.75
2018-02-27T17:00:01.993Z,28.58
2018-02-27T17:02:30.348Z,31.50
2018-02-27T17:04:58.689Z,25.37
2018-02-27T17:07:27.111Z,33.90
2018-02-27T17:09:56.196Z,22.67
2018-02-27T17:12:24.558Z,13.27
2018-02-27T17:14:53.405Z,20.77
2018-02-27T17:17:21.725Z,24.67
2018-02-27T17:19:50.868Z,37.90
2018-02-27T17:22:19.228Z,38.42
2018-02-27T17:24:47.546Z,23.98
2018-02-27T17:27:15.864Z,31.48
2018-02-27T17:29:44.237Z,24.83
2018-02-27T17:32:12.557Z,23.50
2018-02-27T17:34:40.884Z,24.70
2018-02-27T17:37:09.269Z,14.32
2018-02-27T17:39:37.615Z,33.55
2018-02-27T17:42:06.300Z,28.58
2018-02-27T17:44:34.745Z,30.12
2018-02-27T17:47:03.829Z,27.98
2018-02-27T17:49:32.196Z,26.67
2018-02-27T17:52:00.511Z,29.05
2018-02-27T17:54:28.844Z,32.65
2018-02-27T17:56:58.614Z,27.42
2018-02-27T17:59:26.944Z,26.90
2018-02-27T18:01:55.384Z,28.52
2018-02-27T18:04:23.776Z,23.77
2018-02-27T18:06:52.202Z,24.73
2018-02-27T18:09:22.150Z,34.10
2018-02-27T18:11:52.110Z,36.50
2018-02-27T18:14:21.900Z,31.60
2018-02-27T18:16:50.218Z,27.05
2018-02-27T18:19:18.393Z,24.30
2018-02-27T18:21:46.760Z,38.70
2018-02-27T18:24:15.091Z,30.15
2018-02-27T18:26:43.408Z,26.17
2018-02-27T18:29:13.688Z,39.78
2018-02-27T18:31:42.260Z,37.08
2018-02-27T18:34:11.300Z,40.25
2018-02-27T18:36:39.649Z,32.50
2018-02-27T18:39:08.408Z,27.00
2018-02-27T18:41:36.731Z,40.20
2018-02-27T18:44:05.125Z,39.30
2018-02-27T18:46:33.445Z,29.45
2018-02-27T18:49:01.782Z,30.77
2018-02-27T18:51:31.315Z,35.35
2018-02-27T18:54:00.448Z,34.33
2018-02-27T18:56:28.800Z,35.30
2018-02-27T18:58:57.144Z,32.83
2018-02-27T19:01:25.535Z,32.65
2018-02-27T19:03:53.877Z,32.63
2018-02-27T19:06:22.711Z,42.85
2018-02-27T19:08:51.068Z,33.90
2018-02-27T19:11:19.388Z,29.67
2018-02-27T19:13:47.721Z,27.45
2018-02-27T19:16:16.075Z,30.80
2018-02-27T19:18:44.387Z,35.88
2018-02-27T19:21:13.540Z,27.75
2018-02-27T19:23:42.184Z,30.02
2018-02-27T19:26:11.356Z,36.13
2018-02-27T19:28:39.720Z,28.25
2018-02-27T19:31:08.069Z,27.05
2018-02-27T19:33:36.417Z,30.48
2018-02-27T19:36:04.863Z,28.67
2018-02-27T19:38:33.249Z,34.25
2018-02-27T19:41:02.497Z,30.70
2018-02-27T19:43:30.819Z,38.35
2018-02-27T19:45:59.224Z,40.92
2018-02-27T19:48:27.634Z,30.80
2018-02-27T19:50:56.344Z,36.63
2018-02-27T19:53:24.763Z,34.42
2018-02-27T19:55:53.075Z,37.65
2018-02-27T19:58:21.444Z,32.33
2018-02-27T20:00:49.772Z,35.67
2018-02-27T20:03:18.275Z,38.80
2018-02-27T20:05:47.266Z,36.00
2018-02-27T20:08:16.758Z,30.65
2018-02-27T20:10:45.425Z,36.92
2018-02-27T20:13:14.137Z,33.75
2018-02-27T20:15:42.491Z,29.15
2018-02-27T20:18:11.732Z,37.97
2018-02-27T20:20:40.557Z,36.35
2018-02-27T20:23:14.456Z,35.63
2018-02-27T20:25:43.656Z,35.13
2018-02-27T20:28:17.734Z,30.60
2018-02-27T20:30:46.451Z,39.95
2018-02-27T20:33:14.800Z,32.95
2018-02-27T20:35:44.066Z,32.58
2018-02-27T20:38:12.157Z,47.30
2018-02-27T20:40:41.744Z,35.67
2018-02-27T20:43:09.959Z,34.58
2018-02-27T20:45:38.328Z,43.97
2018-02-27T20:48:07.012Z,30.55
2018-02-27T20:50:37.517Z,40.05
2018-02-27T20:53:05.864Z,37.60
2018-02-27T20:55:34.233Z,32.33
2018-02-27T20:58:03.325Z,34.83
2018-02-27T21:00:32.963Z,40.70
2018-02-27T21:03:01.292Z,34.85
2018-02-27T21:05:29.625Z,40.03
2018-02-27T21:07:58.053Z,33.30
2018-02-27T21:10:26.974Z,44.55
2018-02-27T21:12:55.324Z,37.65
2018-02-27T21:15:23.661Z,38.45
2018-02-27T21:17:51.986Z,58.00
2018-02-27T21:20:21.081Z,45.28
2018-02-27T21:22:50.577Z,41.70
2018-02-27T21:25:19.785Z,38.40
2018-02-27T21:27:48.113Z,53.08
2018-02-27T21:30:16.509Z,49.63
2018-02-27T21:32:44.836Z,49.42
2018-02-27T21:35:13.164Z,48.78
2018-02-27T21:37:41.724Z,42.05
2018-02-27T21:40:10.121Z,37.88
2018-02-27T21:42:38.696Z,45.40
2018-02-27T21:45:07.029Z,49.67
2018-02-27T21:47:35.433Z,48.08
2018-02-27T21:50:03.789Z,41.75
2018-02-27T21:52:32.137Z,57.38
2018-02-27T21:55:00.371Z,56.67
2018-02-27T21:57:28.779Z,48.42
2018-02-27T21:59:57.596Z,43.95
2018-02-27T22:02:26.738Z,42.78
2018-02-27T22:04:55.476Z,36.90
2018-02-27T22:07:23.920Z,52.17
2018-02-27T22:09:53.233Z,49.13
2018-02-27T22:12:21.944Z,35.92
2018-02-27T22:14:51.041Z,38.20
2018-02-27T22:17:19.373Z,48.25
2018-02-27T22:19:47.816Z,41.00
2018-02-27T22:22:15.984Z,38.75
2018-02-27T22:24:45.083Z,36.50
2018-02-27T22:27:14.112Z,44.40
2018-02-27T22:29:42.589Z,37.10
2018-02-27T22:32:10.918Z,49.00
2018-02-27T22:34:40.371Z,37.33
2018-02-27T22:37:08.980Z,44.40
2018-02-27T22:39:37.777Z,30.23
2018-02-27T22:42:06.343Z,39.65
2018-02-27T22:44:35.435Z,47.38
2018-02-27T22:47:03.560Z,55.92
2018-02-27T22:49:32.218Z,39.13
2018-02-27T22:52:00.928Z,58.20
2018-02-27T22:54:29.362Z,39.35
2018-02-27T22:56:57.692Z,37.60
2018-02-27T22:59:26.577Z,37.22
2018-02-27T23:01:54.910Z,57.25
2018-02-27T23:04:23.242Z,44.20
2018-02-27T23:06:52.043Z,44.42
2018-02-27T23:09:21.338Z,46.15
2018-02-27T23:11:49.680Z,50.00
2018-02-27T23:14:18.248Z,48.58
2018-02-27T23:16:47.188Z,58.58
2018-02-27T23:19:15.729Z,46.40
2018-02-27T23:21:44.065Z,58.08
2018-02-27T23:24:17.856Z,51.72
2018-02-27T23:26:48.305Z,38.00
2018-02-27T23:29:18.760Z,36.15
2018-02-27T23:31:48.163Z,37.90
2018-02-27T23:34:18.151Z,59.60
2018-02-27T23:36:46.477Z,46.33
2018-02-27T23:39:14.796Z,33.80
2018-02-27T23:41:42.920Z,29.58
2018-02-27T23:44:11.243Z,32.15
2018-02-27T23:46:39.604Z,54.15
2018-02-27T23:49:07.923Z,31.12
2018-02-27T23:51:37.076Z,40.10
2018-02-27T23:54:06.169Z,30.73
2018-02-27T23:56:36.456Z,42.40
2018-02-27T23:59:04.863Z,48.70
